Time;durP1;ratioP1;P1;durP2;ratioP2;P2;SDS_P1;SDS_P2;PMS_P1;PMS_P2;Temp;Humidity;BMP_temperature;BMP_pressure;BME280_temperature;BME280_humidity;BME280_pressure;Samples;Min_cycle;Max_cycle;Signal;HPM_P1;HPM_P2
2021/08/03 00:01:41;;;;;;;9.15;6.32;;;;;;;17.02;100.00;99211.59;5116370;28;20183;-72
2021/08/03 00:04:12;;;;;;;6.50;5.90;;;;;;;17.20;100.00;99219.94;5116040;28;20218;-72
2021/08/03 00:06:44;;;;;;;7.05;5.57;;;;;;;17.01;100.00;99220.75;5116209;28;20218;-72
2021/08/03 00:09:11;;;;;;;7.00;5.90;;;;;;;17.02;100.00;99221.63;5116335;28;20203;-72
2021/08/03 00:11:41;;;;;;;7.10;5.75;;;;;;;17.05;100.00;99215.91;5115876;28;20205;-71
2021/08/03 00:14:09;;;;;;;5.43;4.88;;;;;;;17.09;100.00;99206.44;5116433;28;20187;-72
2021/08/03 00:16:37;;;;;;;5.50;5.00;;;;;;;17.16;100.00;99215.75;5115661;28;20210;-72
2021/08/03 00:19:05;;;;;;;5.45;4.70;;;;;;;17.07;100.00;99214.78;5115343;28;20305;-72
2021/08/03 00:21:32;;;;;;;5.75;4.65;;;;;;;17.18;100.00;99212.91;5115732;28;20253;-72
2021/08/03 00:23:59;;;;;;;5.70;5.05;;;;;;;17.08;99.46;99221.06;5115126;28;20626;-72
2021/08/03 00:26:26;;;;;;;6.00;4.95;;;;;;;17.12;99.59;99227.06;5115537;28;20295;-73
2021/08/03 00:28:54;;;;;;;5.97;4.30;;;;;;;16.95;100.00;99215.88;5115325;28;20215;-72
2021/08/03 00:31:23;;;;;;;6.00;4.68;;;;;;;16.94;100.00;99222.31;5115718;28;20191;-72
2021/08/03 00:33:53;;;;;;;5.47;4.65;;;;;;;16.87;100.00;99216.56;5116017;28;20294;-70
2021/08/03 00:36:21;;;;;;;5.95;5.15;;;;;;;16.86;100.00;99203.97;5115949;28;20687;-72
2021/08/03 00:38:47;;;;;;;5.00;4.47;;;;;;;17.10;100.00;99194.59;5115429;28;20188;-72
2021/08/03 00:41:17;;;;;;;5.20;4.70;;;;;;;16.98;100.00;99182.97;5115436;28;20302;-72
2021/08/03 00:43:43;;;;;;;7.15;5.38;;;;;;;16.87;100.00;99175.78;5115710;28;20677;-72
2021/08/03 00:46:11;;;;;;;5.38;4.88;;;;;;;16.92;100.00;99179.97;5115539;28;20203;-71
2021/08/03 00:48:38;;;;;;;5.90;5.30;;;;;;;17.01;100.00;99187.28;5115665;28;20234;-71
2021/08/03 00:51:04;;;;;;;8.45;4.85;;;;;;;16.89;100.00;99189.22;5115773;28;20616;-71
2021/08/03 00:53:31;;;;;;;5.85;5.05;;;;;;;16.92;100.00;99186.25;5115191;28;20211;-72
2021/08/03 00:56:00;;;;;;;4.85;4.35;;;;;;;17.09;100.00;99184.69;5115169;28;20716;-72
2021/08/03 00:58:26;;;;;;;5.38;4.88;;;;;;;17.09;100.00;99190.13;5115504;28;20205;-72
2021/08/03 01:00:55;;;;;;;5.63;5.03;;;;;;;17.11;99.55;99181.84;5115442;28;20266;-72
2021/08/03 01:03:25;;;;;;;4.88;4.47;;;;;;;16.99;100.00;99178.41;5115232;28;20188;-72
2021/08/03 01:06:01;;;;;;;6.90;5.05;;;;;;;16.93;100.00;99173.50;5115089;28;20229;-72
2021/08/03 01:08:37;;;;;;;7.07;4.60;;;;;;;17.00;100.00;99172.78;5115231;28;20611;-72
2021/08/03 01:11:08;;;;;;;7.20;4.20;;;;;;;17.11;100.00;99184.56;5114981;28;20184;-72
2021/08/03 01:13:44;;;;;;;5.38;4.50;;;;;;;17.24;98.62;99179.72;5114964;28;20203;-72
2021/08/03 01:16:22;;;;;;;5.22;4.00;;;;;;;17.30;97.82;99192.75;5115079;28;20539;-72
2021/08/03 01:18:56;;;;;;;4.88;4.28;;;;;;;17.43;97.71;99195.19;5114688;28;20237;-70
2021/08/03 01:21:36;;;;;;;4.95;4.43;;;;;;;17.39;97.01;99185.56;5114831;28;20216;-72
2021/08/03 01:24:24;;;;;;;7.15;4.90;;;;;;;17.30;97.03;99201.78;5114845;28;20532;-71
2021/08/03 01:27:23;;;;;;;4.95;4.35;;;;;;;17.27;97.79;99188.44;5115058;28;20452;-72
2021/08/03 01:29:51;;;;;;;4.63;4.07;;;;;;;17.12;99.17;99203.47;5071371;28;20202;-71
2021/08/03 01:32:30;;;;;;;5.40;4.90;;;;;;;17.23;99.14;99180.69;5114136;28;20183;-72
2021/08/03 01:34:59;;;;;;;5.55;3.80;;;;;;;17.03;99.96;99180.69;5114889;28;20636;-72
2021/08/03 01:37:29;;;;;;;4.47;4.07;;;;;;;17.12;99.38;99179.00;5114640;28;20614;-73
2021/08/03 01:39:58;;;;;;;5.40;4.30;;;;;;;17.12;99.06;99172.66;5114379;28;20205;-72
2021/08/03 01:42:27;;;;;;;5.40;4.50;;;;;;;16.74;100.00;99164.28;5114402;28;20183;-72
2021/08/03 01:44:57;;;;;;;6.88;4.47;;;;;;;16.97;100.00;99159.47;5114574;28;20338;-72
2021/08/03 01:47:26;;;;;;;5.20;4.70;;;;;;;17.02;100.00;99156.34;5114380;28;20241;-73
2021/08/03 01:49:55;;;;;;;4.55;4.15;;;;;;;16.92;100.00;99150.03;5114400;28;20281;-72
2021/08/03 01:52:23;;;;;;;5.00;4.32;;;;;;;16.76;100.00;99143.25;5114524;28;20191;-72
2021/08/03 01:54:52;;;;;;;4.63;4.22;;;;;;;16.80;100.00;99143.84;5114322;28;20310;-72
2021/08/03 01:57:20;;;;;;;5.72;4.40;;;;;;;16.93;100.00;99140.88;5114051;28;20278;-72
2021/08/03 01:59:48;;;;;;;4.95;4.55;;;;;;;16.97;100.00;99147.75;5114014;28;20195;-72
2021/08/03 02:02:18;;;;;;;5.00;4.60;;;;;;;17.01;100.00;99143.75;5114219;28;20206;-72
2021/08/03 02:04:46;;;;;;;6.22;4.85;;;;;;;16.84;100.00;99135.28;5113840;28;20205;-72
2021/08/03 02:07:15;;;;;;;5.78;4.70;;;;;;;16.88;100.00;99130.41;5114306;28;20629;-72
2021/08/03 02:09:43;;;;;;;4.90;4.03;;;;;;;16.83;100.00;99125.41;5114154;28;20202;-72
2021/08/03 02:12:10;;;;;;;7.10;4.50;;;;;;;16.83;100.00;99125.41;5114125;28;20183;-71
2021/08/03 02:14:40;;;;;;;5.70;4.00;;;;;;;16.61;100.00;99125.63;5113660;28;20294;-71
2021/08/03 02:17:07;;;;;;;5.78;5.00;;;;;;;16.58;100.00;99124.03;5113489;28;20187;-72
2021/08/03 02:19:36;;;;;;;7.30;4.60;;;;;;;16.62;100.00;99114.59;5113507;28;20214;-72
2021/08/03 02:22:02;;;;;;;4.65;4.00;;;;;;;16.57;100.00;99119.59;5113947;28;20199;-72
2021/08/03 02:24:29;;;;;;;6.68;4.22;;;;;;;16.60;100.00;99119.31;5113514;28;20187;-71
2021/08/03 02:26:56;;;;;;;6.88;4.10;;;;;;;16.67;100.00;99108.75;5113921;28;20203;-72
2021/08/03 02:29:22;;;;;;;5.32;3.70;;;;;;;16.62;100.00;99114.59;5113633;28;20197;-72
2021/08/03 02:31:57;;;;;;;4.65;4.25;;;;;;;16.59;100.00;99112.16;5113773;28;20293;-71
2021/08/03 02:34:29;;;;;;;4.80;3.80;;;;;;;16.66;100.00;99117.88;5113440;28;20183;-72
2021/08/03 02:37:01;;;;;;;4.72;4.32;;;;;;;16.65;100.00;99103.44;5113209;28;20184;-72
2021/08/03 02:39:30;;;;;;;5.32;4.85;;;;;;;16.51;100.00;99102.97;5113270;28;20192;-72
2021/08/03 02:41:59;;;;;;;4.13;3.70;;;;;;;16.41;100.00;99103.81;5113329;28;20184;-71
2021/08/03 02:44:27;;;;;;;7.63;5.07;;;;;;;16.47;100.00;99099.69;5113423;28;20205;-72
2021/08/03 02:46:55;;;;;;;6.50;4.78;;;;;;;16.40;100.00;99090.38;5113649;28;20555;-72
2021/08/03 02:49:34;;;;;;;6.38;3.97;;;;;;;16.44;100.00;99092.69;5113247;28;20187;-72
2021/08/03 02:52:04;;;;;;;6.20;4.18;;;;;;;16.54;100.00;99102.72;5113155;28;20233;-72
2021/08/03 02:54:39;;;;;;;4.85;4.38;;;;;;;16.72;100.00;99101.03;5113445;28;20252;-73
2021/08/03 02:57:08;;;;;;;7.25;5.70;;;;;;;16.84;100.00;99102.63;5113251;28;20609;-72
2021/08/03 02:59:39;;;;;;;5.05;4.50;;;;;;;16.78;100.00;99105.91;5112563;28;20278;-72
2021/08/03 03:02:09;;;;;;;5.43;4.90;;;;;;;16.63;100.00;99110.03;5113462;28;20189;-72
2021/08/03 03:04:40;;;;;;;5.88;5.38;;;;;;;16.34;100.00;99102.66;5113034;28;20271;-72
2021/08/03 03:07:14;;;;;;;6.20;4.60;;;;;;;16.46;100.00;99107.00;5113422;28;20198;-72
2021/08/03 03:09:42;;;;;;;6.00;4.95;;;;;;;16.51;100.00;99108.41;5113180;28;20190;-72
2021/08/03 03:12:09;;;;;;;4.95;4.45;;;;;;;16.57;100.00;99108.72;5113225;28;20278;-72
2021/08/03 03:14:39;;;;;;;5.03;4.53;;;;;;;16.58;100.00;99110.44;5112766;28;20195;-72
2021/08/03 03:17:07;;;;;;;6.03;5.32;;;;;;;16.47;100.00;99103.25;5113186;28;20274;-71
2021/08/03 03:19:38;;;;;;;7.88;4.70;;;;;;;16.50;100.00;99106.69;5113069;28;20278;-71
2021/08/03 03:22:07;;;;;;;6.82;4.68;;;;;;;16.57;100.00;99105.13;5112944;28;20279;-73
2021/08/03 03:24:37;;;;;;;4.70;4.05;;;;;;;16.65;100.00;99100.72;5113173;28;20206;-72
2021/08/03 03:27:06;;;;;;;6.75;5.05;;;;;;;16.60;100.00;99104.88;5112817;28;20207;-72
2021/08/03 03:29:36;;;;;;;7.80;4.00;;;;;;;16.61;100.00;99096.56;5113059;28;20270;-72
2021/08/03 03:32:04;;;;;;;4.80;4.40;;;;;;;16.55;100.00;99097.16;5113065;28;20598;-72
2021/08/03 03:34:32;;;;;;;6.35;4.22;;;;;;;16.58;100.00;99102.28;5112666;28;20286;-72
2021/08/03 03:37:00;;;;;;;5.78;5.03;;;;;;;16.56;100.00;99096.13;5112976;28;20206;-72
2021/08/03 03:39:28;;;;;;;5.25;4.32;;;;;;;16.64;100.00;99095.44;5113021;28;20278;-72
2021/08/03 03:42:01;;;;;;;6.10;4.63;;;;;;;16.57;100.00;99094.28;5112712;28;20294;-72
2021/08/03 03:44:28;;;;;;;7.70;4.30;;;;;;;16.70;100.00;99094.03;5112820;28;20187;-71
2021/08/03 03:46:58;;;;;;;6.43;4.70;;;;;;;16.76;99.19;99102.47;5112606;28;20207;-72
2021/08/03 03:49:26;;;;;;;9.57;7.40;;;;;;;16.77;100.00;99101.47;5113048;28;20287;-72
2021/08/03 03:51:54;;;;;;;6.95;6.22;;;;;;;16.77;99.83;99092.44;5112603;28;20271;-72
2021/08/03 03:54:26;;;;;;;8.07;5.05;;;;;;;16.96;98.26;99097.06;5115993;28;20266;-73
2021/08/03 03:57:02;;;;;;;6.72;6.03;;;;;;;17.01;98.09;99102.97;5116442;28;20184;-72
2021/08/03 03:59:28;;;;;;;10.27;5.03;;;;;;;17.05;97.96;99098.97;5116099;28;20193;-72
2021/08/03 04:01:59;;;;;;;5.85;5.25;;;;;;;17.23;95.69;99101.78;5116087;28;20274;-72
2021/08/03 04:04:27;;;;;;;6.45;5.72;;;;;;;17.18;94.84;99104.94;5116479;28;20503;-72
2021/08/03 04:06:54;;;;;;;9.13;5.53;;;;;;;17.14;95.12;99109.00;5115951;28;20223;-72
2021/08/03 04:09:22;;;;;;;23.90;17.02;;;;;;;17.15;95.05;99107.97;5116105;28;20270;-73
2021/08/03 04:11:49;;;;;;;5.90;5.30;;;;;;;17.15;95.72;99115.28;5116086;28;20669;-72
2021/08/03 04:14:22;;;;;;;4.95;4.00;;;;;;;17.28;93.30;99113.97;5115851;28;20275;-72
2021/08/03 04:16:50;;;;;;;3.97;3.60;;;;;;;17.37;93.01;99122.28;5116365;28;20857;-72
2021/08/03 04:19:16;;;;;;;4.60;4.20;;;;;;;17.27;94.42;99125.00;5115669;28;20227;-72
2021/08/03 04:21:45;;;;;;;4.10;3.70;;;;;;;17.19;94.78;99123.00;5116117;28;20617;-73
2021/08/03 04:24:12;;;;;;;4.53;4.10;;;;;;;17.16;94.90;99114.25;5115471;28;20230;-72
2021/08/03 04:26:39;;;;;;;4.35;3.95;;;;;;;17.13;94.33;99115.41;5115610;28;20199;-72
2021/08/03 04:29:06;;;;;;;4.15;3.60;;;;;;;17.17;94.77;99119.56;5115978;28;20513;-72
2021/08/03 04:31:34;;;;;;;5.53;4.07;;;;;;;17.09;95.46;99124.84;5115811;28;20212;-71
2021/08/03 04:34:01;;;;;;;4.57;3.58;;;;;;;17.05;96.16;99123.44;5115801;28;20200;-73
2021/08/03 04:36:28;;;;;;;7.03;5.10;;;;;;;16.99;96.47;99127.56;5116128;28;20705;-72
2021/08/03 04:38:55;;;;;;;4.68;3.83;;;;;;;17.04;97.26;99119.00;5115874;28;20294;-73
2021/08/03 04:41:22;;;;;;;5.20;4.55;;;;;;;17.11;95.53;99120.13;5115693;28;20283;-72
2021/08/03 04:43:48;;;;;;;7.63;5.00;;;;;;;17.01;96.07;99106.53;5116180;28;20634;-73
2021/08/03 04:46:15;;;;;;;3.70;3.10;;;;;;;16.90;97.26;99103.09;5115174;28;20553;-72
2021/08/03 04:48:43;;;;;;;4.47;3.78;;;;;;;17.04;96.25;99108.09;5115208;28;20614;-71
2021/08/03 04:51:10;;;;;;;6.00;3.60;;;;;;;16.94;96.65;99102.66;5115508;28;20596;-71
2021/08/03 04:53:36;;;;;;;5.07;3.38;;;;;;;16.92;96.23;99101.09;5115235;28;20287;-71
2021/08/03 04:56:03;;;;;;;7.20;4.72;;;;;;;16.98;97.21;99104.13;5115363;28;20282;-71
2021/08/03 04:58:31;;;;;;;4.85;4.20;;;;;;;17.12;96.56;99102.81;5115420;28;20199;-72
2021/08/03 05:00:57;;;;;;;4.45;3.90;;;;;;;17.14;97.25;99117.16;5115282;28;20202;-70
2021/08/03 05:03:24;;;;;;;7.90;5.88;;;;;;;17.34;94.79;99111.69;5115120;28;20228;-73
2021/08/03 05:05:52;;;;;;;5.88;3.38;;;;;;;17.29;94.76;99114.84;5113940;28;20299;-73
2021/08/03 05:08:19;;;;;;;4.90;4.25;;;;;;;17.43;93.40;99121.69;5115575;28;20264;-71
2021/08/03 05:10:45;;;;;;;4.25;3.58;;;;;;;17.34;92.28;99117.13;5115128;28;20203;-71
2021/08/03 05:13:12;;;;;;;6.25;3.78;;;;;;;17.44;92.90;99124.28;5114438;28;20215;-71
2021/08/03 05:15:38;;;;;;;3.50;3.20;;;;;;;17.49;91.96;99123.84;5115276;28;20188;-72
2021/08/03 05:18:05;;;;;;;4.03;3.22;;;;;;;17.45;92.43;99120.53;5115047;28;20775;-72
2021/08/03 05:20:32;;;;;;;4.80;3.75;;;;;;;17.44;92.58;99120.72;5115597;28;20264;-72
2021/08/03 05:23:00;;;;;;;3.38;2.88;;;;;;;17.40;92.42;99127.44;5115134;28;20186;-71
2021/08/03 05:25:27;;;;;;;3.92;3.50;;;;;;;17.45;92.68;99119.69;5114819;28;20294;-71
2021/08/03 05:27:54;;;;;;;4.28;2.67;;;;;;;17.56;91.43;99121.41;5114870;28;20274;-73
2021/08/03 05:30:22;;;;;;;4.00;2.80;;;;;;;17.42;92.53;99128.16;5114638;28;20187;-71
2021/08/03 05:32:48;;;;;;;3.35;3.00;;;;;;;17.16;93.66;99117.84;5114543;28;20192;-72
2021/08/03 05:35:15;;;;;;;5.35;3.15;;;;;;;17.22;94.64;99124.59;5114507;28;20681;-71
2021/08/03 05:37:42;;;;;;;6.20;5.55;;;;;;;17.20;94.40;99121.13;5114369;28;20287;-72
2021/08/03 05:40:12;;;;;;;4.03;3.47;;;;;;;17.16;96.46;99127.88;5114743;28;20737;-72
2021/08/03 05:42:39;;;;;;;3.70;3.15;;;;;;;17.18;97.16;99120.44;5114654;28;20184;-73
2021/08/03 05:45:07;;;;;;;5.25;3.40;;;;;;;17.26;98.07;99116.00;5114837;28;20183;-74
2021/08/03 05:47:34;;;;;;;8.57;4.97;;;;;;;17.40;97.17;99122.00;5114514;28;20681;-73
2021/08/03 05:50:02;;;;;;;5.65;4.22;;;;;;;17.43;95.57;99118.97;5114316;28;20236;-73
2021/08/03 05:52:29;;;;;;;5.35;3.33;;;;;;;17.41;95.19;99119.16;5114373;28;20237;-73
2021/08/03 05:54:56;;;;;;;4.40;3.20;;;;;;;17.41;95.31;99116.44;5114706;28;20195;-72
2021/08/03 05:57:24;;;;;;;4.32;2.90;;;;;;;17.47;93.89;99117.69;5113837;28;20215;-73
2021/08/03 05:59:50;;;;;;;4.10;3.25;;;;;;;17.52;93.36;99109.94;5114612;28;20188;-75
2021/08/03 06:02:17;;;;;;;3.10;2.80;;;;;;;17.66;90.89;99112.22;5114267;28;20241;-71
2021/08/03 06:04:44;;;;;;;2.60;2.33;;;;;;;17.63;87.92;99119.81;5114282;28;20642;-72
2021/08/03 06:07:12;;;;;;;6.50;2.33;;;;;;;17.58;87.62;99128.41;5114243;28;20251;-72
2021/08/03 06:09:42;;;;;;;3.00;2.70;;;;;;;17.55;89.50;99127.84;5113859;28;20290;-72
2021/08/03 06:12:11;;;;;;;2.85;2.22;;;;;;;17.03;92.86;99137.19;5114320;28;20233;-73
2021/08/03 06:14:44;;;;;;;3.50;2.55;;;;;;;16.90;95.19;99141.16;5113520;28;20187;-72
2021/08/03 06:17:15;;;;;;;3.70;3.03;;;;;;;16.82;97.00;99139.13;5113449;28;20290;-73
2021/08/03 06:19:43;;;;;;;3.40;2.85;;;;;;;16.70;98.20;99151.09;5113595;28;20183;-71
2021/08/03 06:22:11;;;;;;;6.05;2.70;;;;;;;16.49;100.00;99154.75;5113279;28;20655;-72
2021/08/03 06:24:40;;;;;;;4.30;3.28;;;;;;;16.57;100.00;99154.06;5113549;28;20268;-73
2021/08/03 06:27:08;;;;;;;9.75;6.35;;;;;;;16.64;100.00;99160.66;5112977;28;20296;-72
2021/08/03 06:29:37;;;;;;;6.38;3.15;;;;;;;16.64;100.00;99137.06;5113163;28;20215;-72
2021/08/03 06:32:07;;;;;;;7.00;4.95;;;;;;;16.50;100.00;99129.28;5113448;28;20191;-72
2021/08/03 06:34:34;;;;;;;5.75;3.42;;;;;;;16.57;100.00;99125.00;5113049;28;20187;-73
2021/08/03 06:37:01;;;;;;;6.35;3.72;;;;;;;16.47;100.00;99135.88;5112986;28;20197;-72
2021/08/03 06:39:28;;;;;;;5.55;3.53;;;;;;;16.47;100.00;99141.31;5113502;28;20187;-72
2021/08/03 06:41:58;;;;;;;9.43;3.40;;;;;;;16.63;100.00;99146.22;5113127;28;20191;-71
2021/08/03 06:44:33;;;;;;;3.30;2.72;;;;;;;16.80;100.00;99150.16;5113246;28;20188;-72
2021/08/03 06:47:00;;;;;;;5.10;4.60;;;;;;;17.07;100.00;99148.63;5112482;28;20570;-71
2021/08/03 06:49:32;;;;;;;3.85;2.88;;;;;;;17.07;99.43;99145.88;5113245;28;20183;-72
2021/08/03 06:51:59;;;;;;;5.85;2.90;;;;;;;17.12;96.79;99149.06;5112813;28;20266;-72
2021/08/03 06:54:29;;;;;;;4.03;3.40;;;;;;;17.36;97.84;99154.06;5113313;28;20180;-71
2021/08/03 06:57:06;;;;;;;2.75;2.55;;;;;;;17.43;96.12;99154.34;5113226;28;20634;-71
2021/08/03 06:59:38;;;;;;;3.65;2.00;;;;;;;17.45;94.91;99138.75;5113663;28;20227;-72
2021/08/03 07:02:07;;;;;;;3.95;3.60;;;;;;;17.58;94.18;99138.47;5113230;28;20237;-72
2021/08/03 07:04:42;;;;;;;6.10;3.28;;;;;;;17.65;94.53;99134.16;5113020;28;20230;-70
2021/08/03 07:07:10;;;;;;;4.22;2.60;;;;;;;17.86;91.74;99132.16;5111843;28;20343;-73
2021/08/03 07:09:41;;;;;;;3.42;2.10;;;;;;;17.79;87.20;99132.81;5112874;28;20621;-73
2021/08/03 07:12:10;;;;;;;2.05;1.85;;;;;;;17.83;86.04;99128.84;5112671;28;20184;-71
2021/08/03 07:14:38;;;;;;;4.03;2.08;;;;;;;18.02;86.66;99127.91;5092805;28;20184;-72
2021/08/03 07:17:06;;;;;;;6.78;2.33;;;;;;;18.10;87.07;99125.31;5109745;28;20624;-71
2021/08/03 07:19:33;;;;;;;3.80;2.63;;;;;;;18.20;86.45;99131.56;5112731;28;20288;-70
2021/08/03 07:22:02;;;;;;;3.75;2.40;;;;;;;18.28;85.49;99137.16;5113132;28;20218;-71
2021/08/03 07:24:30;;;;;;;6.40;3.80;;;;;;;18.40;87.06;99146.00;5112723;28;20286;-72
2021/08/03 07:26:59;;;;;;;3.72;2.72;;;;;;;18.33;86.97;99150.31;5112728;28;20686;-72
2021/08/03 07:29:26;;;;;;;3.55;2.97;;;;;;;18.26;87.37;99150.06;5116253;28;20667;-70
2021/08/03 07:31:53;;;;;;;5.15;3.08;;;;;;;18.28;85.18;99144.47;5116689;28;20209;-71
2021/08/03 07:34:20;;;;;;;4.57;3.30;;;;;;;18.21;86.45;99135.19;5116651;28;20270;-72
2021/08/03 07:36:47;;;;;;;5.10;3.00;;;;;;;18.07;87.83;99118.31;5115174;28;20199;-71
2021/08/03 07:39:15;;;;;;;3.72;3.03;;;;;;;17.96;87.80;99107.59;5116876;28;20192;-73
2021/08/03 07:41:41;;;;;;;4.40;3.35;;;;;;;17.94;89.67;99122.38;5116107;28;20195;-71
2021/08/03 07:44:08;;;;;;;4.70;4.20;;;;;;;17.83;91.68;99128.84;5116523;28;20203;-70
2021/08/03 07:46:36;;;;;;;3.17;2.88;;;;;;;17.79;90.20;99127.38;5116314;28;20668;-72
2021/08/03 07:49:05;;;;;;;5.07;3.45;;;;;;;17.77;91.76;99123.94;5115926;28;20196;-70
2021/08/03 07:51:32;;;;;;;6.05;3.63;;;;;;;17.75;91.96;99121.38;5116429;28;20183;-71
2021/08/03 07:53:59;;;;;;;4.05;2.90;;;;;;;17.66;92.95;99116.78;5116433;28;20219;-72
2021/08/03 07:56:27;;;;;;;5.85;3.33;;;;;;;17.51;94.85;99109.09;5115963;28;20199;-71
2021/08/03 07:58:54;;;;;;;5.90;3.75;;;;;;;17.44;96.18;99107.09;5115763;28;20551;-73
2021/08/03 08:01:20;;;;;;;6.38;4.15;;;;;;;17.48;98.13;99109.38;5116403;28;20535;-72
2021/08/03 08:03:47;;;;;;;7.30;4.22;;;;;;;17.54;98.46;99113.38;5116335;28;20192;-72
2021/08/03 08:06:14;;;;;;;8.30;3.60;;;;;;;17.41;98.17;99107.38;5099222;28;20270;-71
2021/08/03 08:08:40;;;;;;;4.85;3.33;;;;;;;17.49;98.48;99091.19;5116753;28;20629;-71
2021/08/03 08:11:07;;;;;;;7.40;4.57;;;;;;;17.47;99.16;99101.38;5115495;28;20179;-72
2021/08/03 08:13:35;;;;;;;4.00;3.60;;;;;;;17.63;98.18;99111.66;5116263;28;20261;-75
2021/08/03 08:16:02;;;;;;;11.77;6.95;;;;;;;17.79;97.77;99127.38;5116553;28;20188;-73
2021/08/03 08:18:29;;;;;;;8.35;6.70;;;;;;;17.91;96.16;99131.69;5118707;27;20292;-71
2021/08/03 08:20:55;;;;;;;5.47;3.90;;;;;;;18.05;95.04;99142.13;5115897;28;20207;-72
2021/08/03 08:23:22;;;;;;;4.93;3.50;;;;;;;17.95;92.40;99163.06;5116052;28;20273;-71
2021/08/03 08:25:48;;;;;;;6.00;5.43;;;;;;;17.95;92.22;99146.72;5116008;28;20642;-72
2021/08/03 08:28:15;;;;;;;5.97;3.17;;;;;;;17.89;88.95;99133.72;5115169;28;20221;-72
2021/08/03 08:30:43;;;;;;;3.10;2.05;;;;;;;17.77;89.30;99130.25;5115922;28;20187;-73
2021/08/03 08:33:10;;;;;;;6.82;4.63;;;;;;;18.01;89.67;99140.69;5115723;28;20539;-72
2021/08/03 08:35:37;;;;;;;3.72;2.95;;;;;;;18.07;88.64;99120.19;5115299;28;20204;-70
2021/08/03 08:38:05;;;;;;;2.95;2.45;;;;;;;18.16;89.27;99112.97;5114968;28;20192;-72
2021/08/03 08:40:32;;;;;;;3.63;2.58;;;;;;;18.18;90.44;99094.59;5115522;28;20192;-73
2021/08/03 08:42:59;;;;;;;2.78;2.58;;;;;;;18.29;88.80;99095.28;5117939;27;20200;-72
2021/08/03 08:45:26;;;;;;;4.50;3.00;;;;;;;18.49;87.97;99082.38;5115618;28;20185;-73
2021/08/03 08:47:54;;;;;;;2.85;1.98;;;;;;;18.65;86.08;99089.03;5115456;28;20660;-72
2021/08/03 08:50:22;;;;;;;3.22;2.72;;;;;;;18.41;86.70;99095.94;5115539;28;20655;-73
2021/08/03 08:52:53;;;;;;;2.65;2.30;;;;;;;18.53;88.19;99111.06;5116770;27;20275;-72
2021/08/03 08:55:21;;;;;;;4.10;2.25;;;;;;;18.66;87.34;99108.00;5122310;27;20190;-72
2021/08/03 08:57:49;;;;;;;2.63;2.40;;;;;;;18.66;86.25;99112.59;5114903;28;20285;-72
2021/08/03 09:00:16;;;;;;;2.72;2.50;;;;;;;18.75;84.63;99126.16;5115294;28;20182;-72
2021/08/03 09:02:44;;;;;;;4.45;2.08;;;;;;;18.70;83.90;99143.97;5124564;27;20202;-72
2021/08/03 09:05:14;;;;;;;2.90;2.58;;;;;;;18.27;84.42;99150.91;5134538;27;20231;-72
2021/08/03 09:07:49;;;;;;;2.55;2.05;;;;;;;18.47;85.77;99159.88;5136161;27;20270;-74
2021/08/03 09:10:33;;;;;;;4.85;3.40;;;;;;;18.51;86.36;99164.88;5135759;27;20200;-73
2021/08/03 09:13:01;;;;;;;4.88;3.90;;;;;;;18.39;86.89;99157.91;5135931;27;20187;-72
2021/08/03 09:15:29;;;;;;;4.72;3.10;;;;;;;18.33;86.57;99148.44;5126519;27;20184;-73
2021/08/03 09:18:10;;;;;;;4.72;2.85;;;;;;;18.33;88.55;99132.09;5114583;28;20234;-72
2021/08/03 09:20:38;;;;;;;4.05;2.70;;;;;;;18.35;88.40;99131.97;5114545;28;20275;-72
2021/08/03 09:23:05;;;;;;;5.90;2.60;;;;;;;18.35;87.66;99134.69;5114258;28;20248;-73
2021/08/03 09:25:32;;;;;;;2.45;2.25;;;;;;;18.19;90.18;99115.41;5114632;28;20607;-73
2021/08/03 09:28:02;;;;;;;4.32;3.70;;;;;;;18.13;89.06;99100.50;5113844;28;20220;-72
2021/08/03 09:30:31;;;;;;;2.40;2.00;;;;;;;17.79;90.26;99121.94;5114471;28;20280;-72
2021/08/03 09:32:58;;;;;;;2.80;2.00;;;;;;;17.91;91.80;99127.09;5114112;28;20201;-73
2021/08/03 09:35:26;;;;;;;3.80;2.45;;;;;;;18.05;89.32;99101.25;5114019;28;20640;-72
2021/08/03 09:37:58;;;;;;;4.75;3.55;;;;;;;18.23;89.84;99097.75;5113693;28;20213;-73
2021/08/03 09:40:27;;;;;;;4.85;3.92;;;;;;;18.19;90.92;99096.34;5114016;28;20589;-72
2021/08/03 09:43:01;;;;;;;37.97;25.95;;;;;;;18.39;90.98;99106.13;5113970;28;20281;-73
2021/08/03 09:45:29;;;;;;;5.43;3.70;;;;;;;18.55;90.10;99102.75;5114305;28;20188;-73
2021/08/03 09:48:08;;;;;;;7.60;6.50;;;;;;;18.73;89.60;99097.31;5113264;28;20750;-73
2021/08/03 09:50:57;;;;;;;4.20;3.17;;;;;;;19.07;86.31;99096.69;5113459;28;20631;-73
2021/08/03 09:53:43;;;;;;;5.78;2.70;;;;;;;19.38;83.58;99092.53;5113748;28;20190;-73
2021/08/03 09:56:12;;;;;;;4.25;3.35;;;;;;;19.75;83.27;99098.81;5113453;28;20197;-73
2021/08/03 09:58:57;;;;;;;2.58;2.38;;;;;;;20.14;78.64;99095.63;5113711;28;20278;-72
2021/08/03 10:01:26;;;;;;;1.73;1.60;;;;;;;20.25;76.46;99091.75;5113995;28;20309;-73
2021/08/03 10:03:53;;;;;;;5.13;3.80;;;;;;;20.39;77.22;99094.72;5114121;28;20189;-73
2021/08/03 10:06:20;;;;;;;1.90;1.67;;;;;;;20.96;75.77;99095.97;5113752;28;20732;-73
2021/08/03 10:08:50;;;;;;;2.10;1.80;;;;;;;21.85;70.89;99092.41;5113317;28;20290;-71
2021/08/03 10:11:17;;;;;;;4.80;1.83;;;;;;;22.41;68.98;99086.09;5113460;28;20436;-72
2021/08/03 10:13:45;;;;;;;3.73;2.43;;;;;;;23.07;64.98;99079.28;5113461;28;20447;-74
2021/08/03 10:16:12;;;;;;;3.20;2.30;;;;;;;23.49;64.16;99082.53;5113480;28;20429;-73
2021/08/03 10:18:40;;;;;;;2.57;1.73;;;;;;;23.97;61.46;99082.28;5112647;28;20548;-71
2021/08/03 10:21:08;;;;;;;2.73;1.23;;;;;;;23.84;59.34;99083.81;5113047;28;20428;-73
2021/08/03 10:23:39;;;;;;;4.40;1.47;;;;;;;23.56;59.98;99085.41;5113220;28;20431;-74
2021/08/03 10:26:13;;;;;;;5.20;4.70;;;;;;;22.98;61.05;99087.72;5112929;28;20426;-73
2021/08/03 10:28:41;;;;;;;2.60;2.40;;;;;;;22.93;60.57;99080.03;5113178;28;20954;-73
2021/08/03 10:31:41;;;;;;;1.30;1.10;;;;;;;23.03;59.21;99080.66;5112794;28;20437;-73
2021/08/03 10:34:08;;;;;;;1.30;0.90;;;;;;;22.82;60.09;99069.47;5113310;28;20983;-73
2021/08/03 10:36:49;;;;;;;1.33;1.20;;;;;;;23.09;59.83;99068.13;5113140;28;20429;-73
2021/08/03 10:39:17;;;;;;;1.80;1.70;;;;;;;23.22;61.13;99062.88;5112827;28;20939;-73
2021/08/03 10:42:08;;;;;;;1.67;1.17;;;;;;;23.02;60.73;99057.00;5112948;28;20959;-74
2021/08/03 10:44:48;;;;;;;2.30;0.97;;;;;;;22.62;64.09;99058.94;5113188;28;20801;-72
2021/08/03 10:47:45;;;;;;;2.77;2.57;;;;;;;23.01;61.00;99060.78;5112698;28;20446;-73
2021/08/03 10:50:15;;;;;;;4.70;2.47;;;;;;;23.10;61.27;99062.41;5030484;28;20527;-73
2021/08/03 10:52:56;;;;;;;2.30;2.10;;;;;;;22.99;62.19;99054.59;5095257;28;20938;-71
2021/08/03 10:55:34;;;;;;;3.40;1.40;;;;;;;22.64;62.55;99061.50;5113097;28;20531;-73
2021/08/03 10:58:27;;;;;;;4.70;2.10;;;;;;;22.54;66.16;99053.47;5112809;28;20419;-74
2021/08/03 11:00:58;;;;;;;3.03;1.70;;;;;;;21.91;67.73;99043.41;5092763;28;21221;-72
2021/08/03 11:03:40;;;;;;;3.80;2.90;;;;;;;21.81;70.40;99047.19;5114545;28;20421;-73
2021/08/03 11:06:40;;;;;;;2.90;2.70;;;;;;;21.78;69.69;99055.78;5117002;28;20421;-72
2021/08/03 11:09:34;;;;;;;2.90;2.60;;;;;;;21.97;69.59;99048.19;5113474;28;20503;-73
2021/08/03 11:12:35;;;;;;;2.70;1.90;;;;;;;22.11;66.93;99046.59;5117227;28;20424;-73
2021/08/03 11:15:39;;;;;;;2.60;1.53;;;;;;;21.84;66.96;99044.13;5117025;28;20440;-73
2021/08/03 11:18:10;;;;;;;2.37;2.17;;;;;;;22.12;68.08;99046.44;5117195;28;20471;-74
2021/08/03 11:21:00;;;;;;;2.13;1.73;;;;;;;22.25;66.26;99045.88;5117150;28;20430;-71
2021/08/03 11:24:00;;;;;;;2.83;2.07;;;;;;;22.41;64.17;99044.97;5117524;28;20875;-73
2021/08/03 11:26:29;;;;;;;3.30;2.50;;;;;;;22.82;63.21;99037.38;5116866;28;20471;-73
2021/08/03 11:28:57;;;;;;;7.53;4.77;;;;;;;23.08;62.95;99039.78;5096649;28;20466;-73
2021/08/03 11:31:39;;;;;;;2.00;1.80;;;;;;;23.18;61.01;99033.19;5096833;28;20532;-73
2021/08/03 11:34:10;;;;;;;2.67;2.20;;;;;;;23.44;60.94;99033.66;5097262;28;20435;-73
2021/08/03 11:36:37;;;;;;;3.20;2.70;;;;;;;23.68;60.17;99029.81;5096840;28;20434;-73
2021/08/03 11:39:20;;;;;;;1.73;1.60;;;;;;;23.73;57.75;99024.59;5097002;28;20907;-71
2021/08/03 11:41:47;;;;;;;1.90;1.80;;;;;;;23.71;59.35;99021.19;5096961;28;20425;-73
2021/08/03 11:44:15;;;;;;;2.70;1.53;;;;;;;23.70;59.41;99032.38;5097186;28;20439;-73
2021/08/03 11:46:42;;;;;;;1.50;1.30;;;;;;;23.64;59.64;99033.97;5117024;28;20825;-73